Time;durP1;ratioP1;P1;durP2;ratioP2;P2;SDS_P1;SDS_P2;PMS_P1;PMS_P2;Temp;Humidity;BMP_temperature;BMP_pressure;BME280_temperature;BME280_humidity;BME280_pressure;Samples;Min_cycle;Max_cycle;Signal;HPM_P1;HPM_P2
2022/01/13 00:00:55;;;;;;;6.07;5.20;;;18.10;30.00;;;;;;5126585;27;47080;-16
2022/01/13 00:03:23;;;;;;;7.25;5.30;;;18.10;30.00;;;;;;5126404;27;46949;-14
2022/01/13 00:05:50;;;;;;;6.50;5.63;;;18.10;30.00;;;;;;5126449;27;49086;-14
2022/01/13 00:08:17;;;;;;;6.50;5.40;;;18.10;30.00;;;;;;5126150;27;47450;-14
2022/01/13 00:10:43;;;;;;;6.15;5.18;;;18.10;30.00;;;;;;5125933;27;46881;-14
2022/01/13 00:13:20;;;;;;;6.32;5.60;;;18.10;30.00;;;;;;5126305;27;46946;-14
2022/01/13 00:15:49;;;;;;;7.05;5.15;;;18.10;30.00;;;;;;5125818;27;47075;-14
2022/01/13 00:18:18;;;;;;;7.18;5.20;;;18.10;30.00;;;;;;5125991;27;47262;-15
2022/01/13 00:21:14;;;;;;;5.95;5.28;;;18.10;30.00;;;;;;5125680;27;46739;-14
2022/01/13 00:23:44;;;;;;;6.82;5.50;;;18.10;30.00;;;;;;5126438;27;46884;-14
2022/01/13 00:26:17;;;;;;;6.28;4.97;;;18.10;30.00;;;;;;5125678;27;47837;-14
2022/01/13 00:28:47;;;;;;;5.68;4.80;;;18.10;30.00;;;;;;5125817;27;47394;-14
2022/01/13 00:31:16;;;;;;;5.90;5.03;;;18.10;30.00;;;;;;5126006;27;46874;-19
2022/01/13 00:33:45;;;;;;;5.60;5.00;;;18.20;30.00;;;;;;5125908;27;47293;-19
2022/01/13 00:36:14;;;;;;;6.43;5.35;;;18.20;30.00;;;;;;5125717;27;48386;-19
2022/01/13 00:38:40;;;;;;;6.38;5.00;;;18.10;30.00;;;;;;5125978;27;47415;-14
2022/01/13 00:41:07;;;;;;;5.95;4.72;;;18.10;30.00;;;;;;5125556;27;47010;-13
2022/01/13 00:43:37;;;;;;;5.47;4.80;;;18.10;30.00;;;;;;5125898;27;46908;-14
2022/01/13 00:46:04;;;;;;;5.88;4.78;;;18.10;29.90;;;;;;5125478;27;47889;-14
2022/01/13 00:48:30;;;;;;;5.53;4.85;;;18.20;29.90;;;;;;5125650;27;46933;-14
2022/01/13 00:50:57;;;;;;;5.13;4.57;;;18.10;29.90;;;;;;5125440;27;46892;-14
2022/01/13 00:53:25;;;;;;;4.97;4.43;;;18.10;29.90;;;;;;5126061;27;46958;-14
2022/01/13 00:55:58;;;;;;;5.15;4.63;;;18.10;29.90;;;;;;5125639;27;49056;-14
2022/01/13 00:58:26;;;;;;;5.93;4.78;;;18.10;29.90;;;;;;5126450;27;46896;-15
2022/01/13 01:00:53;;;;;;;5.43;4.63;;;18.10;29.90;;;;;;5128978;27;47042;-14
2022/01/13 01:03:19;;;;;;;5.43;4.55;;;18.10;29.90;;;;;;5129510;27;47171;-14
2022/01/13 01:05:46;;;;;;;5.65;4.70;;;18.10;29.90;;;;;;5128974;27;48143;-14
2022/01/13 01:08:13;;;;;;;5.07;4.53;;;18.10;29.90;;;;;;5128855;27;47251;-15
2022/01/13 01:10:41;;;;;;;5.13;4.63;;;18.00;29.80;;;;;;5129049;27;46856;-14
2022/01/13 01:13:12;;;;;;;5.57;4.95;;;18.00;29.80;;;;;;5129005;27;46884;-15
2022/01/13 01:15:41;;;;;;;5.70;4.95;;;18.00;29.80;;;;;;5128982;27;48127;-14
2022/01/13 01:18:18;;;;;;;5.60;4.55;;;18.00;29.80;;;;;;5128941;27;46843;-14
2022/01/13 01:20:51;;;;;;;6.68;5.10;;;18.00;30.20;;;;;;5128521;27;46762;-14
2022/01/13 01:23:22;;;;;;;6.75;5.13;;;18.00;29.80;;;;;;5129213;27;46911;-15
2022/01/13 01:26:01;;;;;;;5.70;4.85;;;18.00;29.80;;;;;;5128291;27;48902;-15
2022/01/13 01:28:38;;;;;;;5.90;5.00;;;18.00;29.80;;;;;;5128522;27;46850;-14
2022/01/13 01:31:05;;;;;;;5.57;4.68;;;18.00;29.80;;;;;;5128528;27;46793;-14
2022/01/13 01:33:34;;;;;;;6.25;5.30;;;18.00;29.80;;;;;;5128704;27;47281;-15
2022/01/13 01:36:00;;;;;;;5.40;4.65;;;18.00;29.80;;;;;;5128628;27;47073;-15
2022/01/13 01:38:27;;;;;;;5.15;4.65;;;18.10;29.80;;;;;;5128343;27;47404;-15
2022/01/13 01:40:55;;;;;;;5.45;4.45;;;18.00;29.80;;;;;;5128202;27;47074;-14
2022/01/13 01:43:22;;;;;;;7.57;5.40;;;18.10;29.80;;;;;;5128852;27;46966;-14
2022/01/13 01:45:50;;;;;;;5.82;4.78;;;18.10;29.80;;;;;;5128144;27;47072;-14
2022/01/13 01:48:20;;;;;;;4.97;4.47;;;18.10;29.70;;;;;;5128739;27;46947;-15
2022/01/13 01:50:54;;;;;;;4.88;4.45;;;18.00;29.70;;;;;;5128425;27;47054;-14
2022/01/13 01:53:22;;;;;;;5.10;4.28;;;18.10;29.60;;;;;;5128811;27;46942;-14
2022/01/13 01:55:48;;;;;;;6.35;5.03;;;18.10;29.70;;;;;;5128081;27;46927;-15
2022/01/13 01:58:16;;;;;;;6.10;4.75;;;18.10;29.70;;;;;;5128357;27;46878;-14
2022/01/13 02:00:43;;;;;;;5.85;4.80;;;18.10;29.70;;;;;;5127983;27;46901;-14
2022/01/13 02:03:10;;;;;;;6.13;4.50;;;18.10;29.60;;;;;;5128354;27;47000;-15
2022/01/13 02:05:36;;;;;;;5.97;4.80;;;18.10;29.60;;;;;;5127944;27;48067;-14
2022/01/13 02:08:05;;;;;;;7.10;4.72;;;18.10;29.60;;;;;;5128043;27;47258;-15
2022/01/13 02:10:32;;;;;;;5.07;4.57;;;18.10;29.70;;;;;;5127463;27;46920;-14
2022/01/13 02:13:04;;;;;;;4.78;4.22;;;18.10;29.60;;;;;;5128337;27;46826;-14
2022/01/13 02:15:35;;;;;;;4.88;4.38;;;18.10;29.60;;;;;;5128004;27;48792;-14
2022/01/13 02:18:04;;;;;;;5.10;4.60;;;18.00;29.60;;;;;;5127908;27;47068;-14
2022/01/13 02:20:52;;;;;;;4.32;3.92;;;18.10;29.60;;;;;;5127866;27;47056;-14
2022/01/13 02:23:32;;;;;;;5.13;4.20;;;18.00;29.60;;;;;;5128337;27;46859;-15
2022/01/13 02:25:59;;;;;;;5.93;4.40;;;18.00;29.60;;;;;;5127396;27;48787;-14
2022/01/13 02:28:26;;;;;;;4.30;3.90;;;18.00;29.60;;;;;;5127347;27;47478;-14
2022/01/13 02:30:52;;;;;;;5.25;4.18;;;18.00;29.60;;;;;;5127665;27;46829;-14
2022/01/13 02:33:19;;;;;;;4.15;3.65;;;18.00;29.60;;;;;;5127936;27;46896;-19
2022/01/13 02:35:47;;;;;;;4.10;3.70;;;18.00;29.60;;;;;;5127183;27;46827;-19
2022/01/13 02:38:14;;;;;;;4.15;3.78;;;18.00;29.60;;;;;;5127409;27;47142;-19
2022/01/13 02:40:41;;;;;;;4.25;3.80;;;18.00;29.70;;;;;;5127561;27;47009;-19
2022/01/13 02:43:08;;;;;;;4.85;3.83;;;18.00;29.60;;;;;;5127839;27;47293;-19
2022/01/13 02:45:38;;;;;;;3.40;3.10;;;18.00;29.60;;;;;;5127473;27;48144;-19
2022/01/13 02:48:27;;;;;;;4.65;3.45;;;18.00;29.60;;;;;;5127612;27;46897;-19
2022/01/13 02:50:55;;;;;;;4.05;3.53;;;18.00;29.60;;;;;;5127408;27;46876;-19
2022/01/13 02:53:22;;;;;;;3.72;3.30;;;18.00;29.60;;;;;;5127507;27;47472;-19
2022/01/13 02:55:49;;;;;;;5.93;3.85;;;18.00;29.60;;;;;;5127076;27;48061;-14
2022/01/13 02:58:16;;;;;;;3.70;3.40;;;18.00;29.50;;;;;;5127427;27;46984;-14
2022/01/13 03:00:43;;;;;;;3.90;3.50;;;18.00;29.50;;;;;;5127199;27;46820;-14
2022/01/13 03:03:09;;;;;;;4.35;3.67;;;18.00;29.50;;;;;;5127445;27;46830;-14
2022/01/13 03:05:38;;;;;;;3.35;3.05;;;18.00;29.50;;;;;;5127093;27;48833;-15
2022/01/13 03:08:07;;;;;;;4.10;3.38;;;18.00;29.50;;;;;;5126912;27;47288;-14
2022/01/13 03:10:33;;;;;;;4.10;3.20;;;18.00;29.50;;;;;;5126960;27;46965;-14
2022/01/13 03:13:01;;;;;;;3.28;2.97;;;18.10;29.50;;;;;;5127422;27;47258;-15
2022/01/13 03:15:27;;;;;;;3.53;3.22;;;18.10;29.50;;;;;;5126682;27;47885;-14
2022/01/13 03:17:54;;;;;;;4.80;3.85;;;18.10;29.40;;;;;;5126822;27;46846;-15
2022/01/13 03:20:21;;;;;;;4.13;3.40;;;18.10;29.40;;;;;;5126907;27;46956;-14
2022/01/13 03:22:47;;;;;;;3.55;3.17;;;18.10;29.40;;;;;;5126494;27;46947;-14
2022/01/13 03:25:22;;;;;;;3.67;3.38;;;18.10;29.40;;;;;;5126383;27;47019;-14
2022/01/13 03:27:53;;;;;;;3.90;3.20;;;18.10;29.40;;;;;;5126445;27;46941;-14
2022/01/13 03:30:19;;;;;;;4.03;3.60;;;18.10;29.40;;;;;;5126699;27;46980;-13
2022/01/13 03:32:46;;;;;;;3.50;3.20;;;18.10;29.30;;;;;;5126824;27;46844;-15
2022/01/13 03:35:13;;;;;;;3.47;2.90;;;18.10;29.40;;;;;;5126704;27;46902;-14
2022/01/13 03:37:39;;;;;;;3.58;3.28;;;18.10;29.40;;;;;;5126459;27;46759;-14
2022/01/13 03:40:07;;;;;;;3.83;3.42;;;18.00;29.30;;;;;;5126510;27;47002;-14
2022/01/13 03:42:35;;;;;;;3.65;3.30;;;18.00;29.30;;;;;;5126850;27;46898;-14
2022/01/13 03:45:02;;;;;;;3.58;3.10;;;18.00;29.30;;;;;;5126529;27;49058;-15
2022/01/13 03:47:28;;;;;;;3.63;3.33;;;18.00;29.20;;;;;;5126557;27;46905;-15
2022/01/13 03:49:55;;;;;;;3.13;2.83;;;18.00;29.30;;;;;;5126576;27;46731;-15
2022/01/13 03:52:52;;;;;;;3.25;2.90;;;18.00;29.40;;;;;;5126739;27;47222;-15
2022/01/13 03:56:07;;;;;;;3.60;3.00;;;18.00;29.40;;;;;;5125957;27;47036;-14
2022/01/13 03:59:31;;;;;;;3.92;3.45;;;18.00;29.40;;;;;;5126342;27;47449;-14
2022/01/13 04:02:05;;;;;;;3.08;2.78;;;18.00;29.40;;;;;;5126428;27;46884;-15
2022/01/13 04:04:34;;;;;;;2.90;2.60;;;17.90;29.30;;;;;;5126647;27;47036;-14
2022/01/13 04:07:10;;;;;;;3.17;2.63;;;17.90;29.30;;;;;;5126021;27;49052;-14
2022/01/13 04:10:16;;;;;;;3.63;2.70;;;18.00;29.40;;;;;;5126312;27;47208;-18
2022/01/13 04:12:42;;;;;;;3.38;3.05;;;18.00;29.40;;;;;;5057924;27;46959;-19
2022/01/13 04:15:12;;;;;;;3.17;2.80;;;18.00;29.40;;;;;;5126233;27;46774;-19
2022/01/13 04:17:39;;;;;;;3.10;2.80;;;18.00;29.40;;;;;;5125890;27;48162;-19
2022/01/13 04:20:08;;;;;;;3.20;2.90;;;18.00;29.40;;;;;;5126203;27;46900;-14
2022/01/13 04:22:35;;;;;;;2.92;2.65;;;18.00;29.30;;;;;;5126200;27;47084;-14
2022/01/13 04:25:02;;;;;;;3.30;2.70;;;18.00;29.30;;;;;;5126022;27;46881;-14
2022/01/13 04:27:32;;;;;;;3.75;2.53;;;18.00;29.20;;;;;;5125812;27;46958;-15
2022/01/13 04:30:22;;;;;;;3.15;2.60;;;18.10;29.30;;;;;;5126056;27;46992;-14
2022/01/13 04:32:49;;;;;;;2.80;2.50;;;18.10;29.30;;;;;;5127233;27;47071;-15
2022/01/13 04:35:16;;;;;;;3.33;2.80;;;18.10;29.20;;;;;;5129813;27;47150;-14
2022/01/13 04:37:43;;;;;;;2.78;2.58;;;18.10;29.20;;;;;;5129365;27;47947;-15
2022/01/13 04:40:10;;;;;;;3.60;3.22;;;18.10;29.20;;;;;;5129238;27;46846;-14
2022/01/13 04:42:41;;;;;;;3.83;3.40;;;18.10;29.10;;;;;;5129354;27;46945;-14
2022/01/13 04:45:09;;;;;;;3.00;2.80;;;18.00;29.10;;;;;;5129538;27;46933;-18
2022/01/13 04:47:35;;;;;;;3.35;3.05;;;18.00;29.30;;;;;;5129409;27;49056;-18
2022/01/13 04:50:04;;;;;;;3.25;2.58;;;18.00;29.20;;;;;;5129305;27;47141;-19
2022/01/13 04:52:30;;;;;;;3.15;2.85;;;18.00;29.20;;;;;;5129163;27;46887;-19
2022/01/13 04:54:57;;;;;;;4.05;3.25;;;18.00;29.30;;;;;;5130410;27;47289;-19
2022/01/13 04:57:24;;;;;;;3.53;3.20;;;18.00;29.20;;;;;;5128863;27;47958;-19
2022/01/13 04:59:50;;;;;;;3.22;2.83;;;18.00;29.20;;;;;;5129375;27;47469;-20
2022/01/13 05:02:17;;;;;;;4.30;3.00;;;17.90;29.20;;;;;;5129207;27;47043;-19
2022/01/13 05:04:44;;;;;;;3.33;2.85;;;17.90;29.20;;;;;;5129633;27;46893;-19
2022/01/13 05:07:12;;;;;;;3.33;2.92;;;17.90;29.20;;;;;;5129051;27;48228;-19
2022/01/13 05:09:38;;;;;;;3.20;2.90;;;17.90;29.20;;;;;;5129027;27;46883;-14
2022/01/13 05:12:06;;;;;;;3.78;3.03;;;17.90;29.00;;;;;;5128850;27;46735;-14
2022/01/13 05:14:33;;;;;;;3.20;2.78;;;17.90;29.10;;;;;;5129297;27;46939;-14
2022/01/13 05:17:06;;;;;;;4.32;3.13;;;17.90;29.10;;;;;;5128694;27;48856;-14
2022/01/13 05:19:37;;;;;;;3.40;3.00;;;17.90;29.10;;;;;;5128780;27;46810;-13
2022/01/13 05:22:16;;;;;;;3.45;3.05;;;17.90;29.10;;;;;;5128628;27;46900;-14
2022/01/13 05:24:46;;;;;;;3.92;2.95;;;17.90;29.10;;;;;;5128657;27;47156;-14
2022/01/13 05:27:13;;;;;;;4.00;3.13;;;17.90;29.10;;;;;;5128255;27;49236;-14
2022/01/13 05:29:40;;;;;;;2.97;2.78;;;17.90;29.10;;;;;;5128327;27;47017;-16
2022/01/13 05:32:07;;;;;;;3.53;3.13;;;17.90;29.20;;;;;;5128705;27;46748;-14
2022/01/13 05:34:34;;;;;;;3.42;3.13;;;17.90;29.10;;;;;;5128584;27;46867;-14
2022/01/13 05:37:00;;;;;;;3.47;3.10;;;18.00;29.10;;;;;;5128592;27;48806;-14
2022/01/13 05:39:27;;;;;;;2.97;2.67;;;18.00;29.10;;;;;;5128734;27;46993;-15
2022/01/13 05:41:55;;;;;;;3.50;2.90;;;18.00;29.10;;;;;;5128251;27;47137;-14
2022/01/13 05:44:22;;;;;;;3.53;3.08;;;18.00;29.10;;;;;;5128119;27;46921;-19
2022/01/13 05:46:48;;;;;;;3.78;3.00;;;18.00;29.10;;;;;;5128194;27;48021;-19
2022/01/13 05:49:15;;;;;;;4.80;3.00;;;18.00;29.10;;;;;;5128453;27;47005;-20
2022/01/13 05:51:42;;;;;;;3.42;2.80;;;18.00;29.10;;;;;;5128381;27;46881;-20
2022/01/13 05:54:09;;;;;;;3.30;3.00;;;18.00;29.00;;;;;;5128630;27;47138;-20
2022/01/13 05:56:35;;;;;;;3.10;2.78;;;18.00;29.00;;;;;;5128176;27;47038;-20
2022/01/13 05:59:03;;;;;;;3.70;3.03;;;18.00;29.00;;;;;;5128250;27;47416;-20
2022/01/13 06:01:30;;;;;;;3.80;2.85;;;18.00;29.00;;;;;;5127980;27;47077;-20
2022/01/13 06:03:57;;;;;;;3.75;3.10;;;18.00;29.00;;;;;;5128396;27;47311;-20
2022/01/13 06:06:23;;;;;;;3.35;2.90;;;18.00;28.90;;;;;;5128008;27;46989;-20
2022/01/13 06:08:50;;;;;;;3.40;2.97;;;18.00;28.90;;;;;;5128004;27;46803;-20
2022/01/13 06:11:21;;;;;;;3.00;2.67;;;18.00;28.90;;;;;;5127906;27;46921;-20
2022/01/13 06:13:48;;;;;;;3.20;2.58;;;18.00;28.90;;;;;;5128200;27;46845;-20
2022/01/13 06:16:16;;;;;;;3.20;2.90;;;18.00;28.90;;;;;;5127886;27;48881;-20
2022/01/13 06:18:43;;;;;;;3.42;2.97;;;18.00;28.90;;;;;;5127774;27;47577;-20
2022/01/13 06:21:09;;;;;;;3.72;3.13;;;18.00;28.90;;;;;;5127797;27;46887;-19
2022/01/13 06:23:36;;;;;;;3.47;3.10;;;18.00;28.80;;;;;;5128085;27;46982;-20
2022/01/13 06:26:04;;;;;;;4.53;3.13;;;17.90;28.80;;;;;;5126996;27;48814;-20
2022/01/13 06:28:31;;;;;;;3.20;2.90;;;17.90;28.80;;;;;;5127631;27;46981;-20
2022/01/13 06:30:57;;;;;;;4.18;3.38;;;17.90;28.90;;;;;;5127649;27;46777;-19
2022/01/13 06:33:25;;;;;;;4.82;3.05;;;17.90;28.90;;;;;;5127707;27;47286;-19
2022/01/13 06:35:52;;;;;;;3.17;2.65;;;17.90;28.90;;;;;;5127446;27;48123;-20
2022/01/13 06:38:19;;;;;;;3.40;3.00;;;17.90;28.90;;;;;;5127458;27;46960;-20
2022/01/13 06:40:47;;;;;;;3.88;2.83;;;17.90;28.90;;;;;;5127649;27;46850;-20
2022/01/13 06:43:14;;;;;;;3.17;2.88;;;17.90;28.90;;;;;;5127777;27;46912;-20
2022/01/13 06:45:41;;;;;;;3.50;2.80;;;17.90;28.90;;;;;;5127293;27;48807;-19
2022/01/13 06:48:08;;;;;;;3.20;2.90;;;17.90;28.90;;;;;;5127204;27;46912;-20
2022/01/13 06:50:36;;;;;;;3.28;2.85;;;17.90;28.90;;;;;;5126912;27;46952;-19
2022/01/13 06:53:03;;;;;;;3.17;2.88;;;17.90;28.90;;;;;;5127450;27;47230;-20
2022/01/13 06:55:29;;;;;;;2.95;2.65;;;17.90;28.90;;;;;;5125898;27;49073;-19
2022/01/13 06:57:56;;;;;;;3.42;2.83;;;17.90;28.90;;;;;;5126962;27;47148;-20
2022/01/13 07:00:24;;;;;;;3.72;3.05;;;17.90;28.90;;;;;;5127291;27;46926;-20
2022/01/13 07:02:52;;;;;;;3.03;2.60;;;18.00;28.90;;;;;;5127440;27;47337;-20
2022/01/13 07:05:19;;;;;;;3.40;3.08;;;18.00;28.90;;;;;;5133773;27;48264;-20
2022/01/13 07:07:48;;;;;;;2.70;2.50;;;18.00;28.80;;;;;;5147564;27;46919;-21
2022/01/13 07:10:15;;;;;;;3.08;2.78;;;18.00;28.80;;;;;;5147906;27;46895;-20
2022/01/13 07:12:42;;;;;;;3.63;2.97;;;18.00;28.80;;;;;;5139161;27;46821;-20
2022/01/13 07:15:10;;;;;;;3.17;2.75;;;18.00;28.80;;;;;;5130022;27;47248;-20
2022/01/13 07:17:37;;;;;;;3.60;3.10;;;18.00;28.70;;;;;;5128629;27;47105;-20
2022/01/13 07:20:04;;;;;;;3.67;3.20;;;18.00;28.70;;;;;;5126959;27;46889;-20
2022/01/13 07:22:31;;;;;;;4.38;3.13;;;18.00;28.80;;;;;;5126474;27;47253;-20
2022/01/13 07:24:59;;;;;;;3.40;3.10;;;18.00;28.80;;;;;;5126430;27;49063;-20
2022/01/13 07:27:26;;;;;;;3.92;3.38;;;18.00;28.80;;;;;;5126505;27;46951;-20
2022/01/13 07:29:52;;;;;;;3.70;3.40;;;18.00;28.70;;;;;;5126872;27;46925;-20
2022/01/13 07:32:19;;;;;;;3.30;3.00;;;18.00;28.70;;;;;;5126528;27;46835;-20
2022/01/13 07:34:46;;;;;;;4.28;3.80;;;17.90;28.70;;;;;;5126582;27;47186;-20
2022/01/13 07:37:12;;;;;;;3.60;3.30;;;17.90;28.70;;;;;;5126361;27;47419;-19
2022/01/13 07:39:39;;;;;;;4.00;3.53;;;17.90;28.80;;;;;;5126687;27;47047;-19
2022/01/13 07:42:08;;;;;;;5.07;3.33;;;17.90;28.80;;;;;;5126805;27;47333;-19
2022/01/13 07:44:35;;;;;;;4.38;3.80;;;17.90;28.70;;;;;;5126551;27;49177;-19
2022/01/13 07:47:01;;;;;;;4.15;3.60;;;17.90;28.70;;;;;;5126546;27;46984;-19
2022/01/13 07:49:28;;;;;;;4.35;3.70;;;17.90;28.70;;;;;;5126586;27;46830;-19
2022/01/13 07:51:55;;;;;;;5.25;3.85;;;17.90;28.70;;;;;;5126229;27;47444;-20
2022/01/13 07:54:25;;;;;;;4.47;3.40;;;17.90;28.70;;;;;;5126539;27;49023;-20
2022/01/13 07:56:52;;;;;;;4.07;3.67;;;17.90;28.70;;;;;;5126480;27;47495;-19
2022/01/13 07:59:20;;;;;;;4.57;3.60;;;17.90;28.70;;;;;;5126261;27;46929;-20
2022/01/13 08:01:47;;;;;;;4.65;3.60;;;17.90;28.70;;;;;;5126514;27;46830;-19
2022/01/13 08:04:17;;;;;;;3.92;3.50;;;17.90;28.80;;;;;;5126062;27;47100;-19
2022/01/13 08:06:43;;;;;;;4.45;3.78;;;17.90;28.80;;;;;;5126136;27;48081;-20
2022/01/13 08:09:10;;;;;;;4.30;3.60;;;17.90;28.80;;;;;;5129852;27;46895;-20
2022/01/13 08:11:37;;;;;;;4.60;4.13;;;18.00;28.80;;;;;;5130125;27;47067;-20
2022/01/13 08:14:03;;;;;;;4.70;3.63;;;18.00;28.70;;;;;;5129928;27;49077;-20
2022/01/13 08:16:35;;;;;;;4.72;3.88;;;18.00;28.80;;;;;;5129361;27;46845;-19
2022/01/13 08:21:46;;;;;;;4.10;3.58;;;18.00;28.70;;;;;;5129509;27;46709;-20
2022/01/13 08:24:13;;;;;;;4.63;3.92;;;18.00;28.70;;;;;;5129784;27;49036;-20
2022/01/13 08:26:39;;;;;;;4.22;3.47;;;18.00;28.70;;;;;;5129401;27;47032;-19
2022/01/13 08:29:06;;;;;;;4.93;3.75;;;18.10;29.20;;;;;;5129593;27;46904;-19
2022/01/13 08:31:34;;;;;;;4.30;3.90;;;18.10;28.80;;;;;;5129605;27;46825;-20
2022/01/13 08:34:01;;;;;;;5.07;4.25;;;18.10;28.70;;;;;;5129679;27;46816;-19
2022/01/13 08:36:28;;;;;;;6.45;3.97;;;18.10;28.70;;;;;;5129320;27;47072;-15
2022/01/13 08:38:54;;;;;;;4.53;3.85;;;18.10;28.70;;;;;;5129427;27;46966;-15
2022/01/13 08:41:21;;;;;;;4.93;3.85;;;18.10;28.70;;;;;;5136841;27;46920;-14
2022/01/13 08:43:51;;;;;;;4.57;3.95;;;18.10;28.60;;;;;;5150334;27;48077;-19
2022/01/13 08:46:18;;;;;;;4.38;3.70;;;18.10;28.70;;;;;;5150194;27;47434;-20
2022/01/13 08:48:46;;;;;;;4.22;3.83;;;18.10;28.70;;;;;;5150000;27;46918;-19
2022/01/13 08:51:17;;;;;;;4.35;3.85;;;18.10;28.70;;;;;;5150257;27;46941;-19
2022/01/13 08:53:43;;;;;;;4.90;3.88;;;18.10;28.60;;;;;;5150235;27;48866;-20
2022/01/13 08:56:10;;;;;;;5.07;4.20;;;18.10;28.60;;;;;;5150154;27;46924;-20
2022/01/13 08:58:37;;;;;;;5.68;4.13;;;18.10;28.60;;;;;;5149801;27;46752;-20
2022/01/13 09:01:03;;;;;;;5.80;4.40;;;18.10;28.70;;;;;;5149973;27;46925;-20
2022/01/13 09:03:30;;;;;;;4.43;3.97;;;18.10;28.70;;;;;;5148838;27;46973;-19
2022/01/13 09:05:58;;;;;;;4.15;3.75;;;18.10;28.70;;;;;;5148348;27;47056;-19
2022/01/13 09:08:25;;;;;;;4.63;3.90;;;18.10;28.70;;;;;;5148617;27;46985;-19
2022/01/13 09:10:51;;;;;;;4.55;4.15;;;18.20;28.60;;;;;;5149495;27;46940;-19
2022/01/13 09:13:18;;;;;;;5.47;4.28;;;18.20;28.60;;;;;;5149482;27;48881;-19
2022/01/13 09:15:49;;;;;;;4.75;3.70;;;18.10;28.70;;;;;;5149515;27;47300;-20
2022/01/13 09:18:16;;;;;;;4.40;4.00;;;18.10;28.70;;;;;;5149532;27;46859;-19
2022/01/13 09:20:43;;;;;;;4.22;3.78;;;18.10;28.70;;;;;;5149034;27;47176;-19
2022/01/13 09:23:11;;;;;;;5.68;4.00;;;18.20;28.70;;;;;;5149445;27;47862;-19
2022/01/13 09:25:38;;;;;;;6.25;4.10;;;18.20;28.70;;;;;;5148939;27;47475;-20
2022/01/13 09:28:06;;;;;;;4.28;3.85;;;18.20;29.20;;;;;;5149626;27;46843;-15
2022/01/13 09:30:33;;;;;;;4.65;3.88;;;18.20;28.70;;;;;;5149680;27;47094;-15
2022/01/13 09:33:00;;;;;;;4.65;3.70;;;18.30;28.70;;;;;;5149522;27;49062;-15
2022/01/13 09:35:26;;;;;;;3.83;3.42;;;18.30;28.80;;;;;;5149354;27;46893;-15
2022/01/13 09:37:53;;;;;;;4.78;4.05;;;18.30;28.70;;;;;;5149304;27;47013;-15
2022/01/13 09:40:21;;;;;;;4.53;3.65;;;18.30;28.70;;;;;;5149496;27;46906;-19
2022/01/13 09:42:48;;;;;;;5.45;4.07;;;18.30;28.70;;;;;;5149301;27;48210;-19
2022/01/13 09:45:15;;;;;;;3.60;3.30;;;18.30;28.70;;;;;;5148950;27;47435;-19
2022/01/13 09:47:43;;;;;;;4.43;4.03;;;18.30;28.80;;;;;;5149026;27;46961;-20
2022/01/13 09:50:11;;;;;;;4.53;3.60;;;18.30;28.80;;;;;;5149514;27;46870;-19
2022/01/13 09:52:38;;;;;;;4.03;3.63;;;18.40;28.80;;;;;;5148753;27;48807;-19
2022/01/13 09:55:05;;;;;;;4.22;3.38;;;18.40;28.80;;;;;;5149293;27;47003;-19
2022/01/13 09:57:33;;;;;;;5.00;3.70;;;18.40;28.80;;;;;;5149065;27;47063;-19
2022/01/13 10:00:00;;;;;;;5.13;3.50;;;18.40;28.80;;;;;;5149021;27;46926;-20
2022/01/13 10:02:27;;;;;;;4.32;3.70;;;18.40;28.80;;;;;;5148813;27;47840;-20
2022/01/13 10:04:54;;;;;;;4.22;3.83;;;18.40;28.80;;;;;;5148934;27;47245;-19
2022/01/13 10:07:30;;;;;;;3.45;3.15;;;18.40;28.80;;;;;;5149141;27;46895;-20
2022/01/13 10:09:58;;;;;;;4.30;3.90;;;18.40;28.80;;;;;;5149012;27;46929;-20
2022/01/13 10:12:26;;;;;;;4.15;3.65;;;18.40;28.70;;;;;;5148514;27;48139;-19
2022/01/13 10:17:45;;;;;;;4.18;3.78;;;18.40;28.80;;;;;;5145882;27;46830;-16
2022/01/13 10:20:13;;;;;;;3.70;3.35;;;18.40;28.80;;;;;;5147736;27;46938;-15
2022/01/13 10:22:39;;;;;;;4.20;3.78;;;18.40;28.80;;;;;;5135710;27;47094;-15
2022/01/13 10:25:08;;;;;;;3.88;3.58;;;18.40;28.80;;;;;;5127343;27;46751;-18
2022/01/13 10:27:35;;;;;;;3.45;3.15;;;18.50;28.80;;;;;;5127941;27;46870;-14
2022/01/13 10:30:05;;;;;;;4.03;3.63;;;18.50;28.80;;;;;;5127543;27;47055;-15
2022/01/13 10:32:33;;;;;;;3.53;3.22;;;18.50;28.80;;;;;;5127373;27;48781;-15
2022/01/13 10:35:01;;;;;;;5.35;3.60;;;18.50;28.80;;;;;;5127614;27;47407;-15
2022/01/13 10:37:30;;;;;;;3.80;3.50;;;18.50;28.80;;;;;;5127548;27;46822;-19
2022/01/13 10:39:59;;;;;;;4.35;3.70;;;18.50;28.80;;;;;;5129325;27;47059;-19
2022/01/13 10:45:33;;;;;;;4.05;3.65;;;18.50;28.80;;;;;;5125814;27;46947;-20
2022/01/13 10:48:02;;;;;;;4.78;3.80;;;18.60;28.80;;;;;;5127044;27;46896;-19
2022/01/13 10:50:31;;;;;;;3.67;3.33;;;18.60;28.70;;;;;;5143208;27;47178;-19
2022/01/13 10:53:03;;;;;;;4.53;4.07;;;18.60;28.80;;;;;;5141960;27;46899;-20
2022/01/13 10:55:30;;;;;;;4.53;3.78;;;18.60;28.70;;;;;;5127037;27;46916;-14
2022/01/13 10:57:56;;;;;;;4.13;3.72;;;18.70;28.70;;;;;;5128530;27;46887;-15
2022/01/13 11:00:25;;;;;;;4.40;3.65;;;18.80;28.60;;;;;;5128071;27;47327;-15
2022/01/13 11:03:02;;;;;;;4.40;3.85;;;18.80;28.60;;;;;;5136789;27;47867;-15
2022/01/13 11:05:29;;;;;;;3.70;3.40;;;18.80;28.50;;;;;;5147608;27;47015;-15
2022/01/13 11:07:57;;;;;;;4.03;3.63;;;18.90;28.60;;;;;;5147783;27;46971;-14
2022/01/13 11:10:24;;;;;;;4.00;3.63;;;18.90;28.60;;;;;;5146285;27;46826;-15
2022/01/13 11:12:56;;;;;;;4.70;4.00;;;18.90;28.60;;;;;;5147849;27;47934;-16
2022/01/13 11:15:24;;;;;;;4.13;3.53;;;18.90;28.60;;;;;;5147372;27;47458;-15
2022/01/13 11:17:51;;;;;;;4.15;3.75;;;18.90;28.60;;;;;;5146108;27;46993;-15
2022/01/13 11:20:20;;;;;;;4.18;3.70;;;18.90;28.60;;;;;;5147154;27;47021;-15
2022/01/13 11:22:47;;;;;;;4.55;3.83;;;18.90;28.60;;;;;;5146847;27;48009;-15
2022/01/13 11:25:14;;;;;;;4.50;4.07;;;18.90;28.60;;;;;;5147403;27;46884;-15
2022/01/13 11:27:41;;;;;;;4.03;3.72;;;18.90;28.70;;;;;;5147593;27;47101;-14
2022/01/13 11:30:10;;;;;;;4.72;4.20;;;18.90;28.70;;;;;;5147876;27;46925;-15
2022/01/13 11:32:37;;;;;;;5.35;3.97;;;18.90;28.80;;;;;;5147561;27;49138;-14
2022/01/13 11:35:04;;;;;;;4.90;3.70;;;18.90;28.70;;;;;;5147331;27;47276;-14
2022/01/13 11:37:33;;;;;;;4.30;3.90;;;19.00;28.70;;;;;;5145367;27;46875;-14
2022/01/13 11:40:00;;;;;;;4.55;3.80;;;19.00;28.70;;;;;;5136796;27;46949;-14
2022/01/13 11:42:27;;;;;;;3.90;3.60;;;19.10;28.70;;;;;;5125908;27;48969;-19
2022/01/13 11:45:14;;;;;;;4.53;3.50;;;19.10;28.70;;;;;;5126271;27;47414;-19
2022/01/13 11:47:41;;;;;;;4.78;4.28;;;19.20;28.60;;;;;;5126298;27;46798;-18
2022/01/13 11:50:15;;;;;;;4.63;4.13;;;19.20;28.50;;;;;;5130010;27;46959;-20
2022/01/13 11:52:47;;;;;;;6.00;4.32;;;19.30;28.50;;;;;;5145861;27;47117;-20
2022/01/13 11:55:24;;;;;;;5.65;4.28;;;19.30;28.50;;;;;;5131812;27;47021;-21
2022/01/13 11:57:51;;;;;;;5.10;4.25;;;19.30;28.70;;;;;;5145187;27;46799;-21
2022/01/13 12:00:29;;;;;;;4.45;4.05;;;19.30;28.50;;;;;;5144310;27;46930;-20
2022/01/13 12:02:56;;;;;;;5.25;4.07;;;19.30;28.50;;;;;;5144212;27;47203;-20
2022/01/13 12:05:23;;;;;;;4.50;4.10;;;19.30;28.60;;;;;;5143498;27;47126;-21
2022/01/13 12:07:53;;;;;;;4.93;4.35;;;19.20;28.60;;;;;;5144439;27;46926;-21
2022/01/13 12:10:48;;;;;;;4.40;4.00;;;19.20;28.70;;;;;;5145426;27;47036;-20
2022/01/13 12:13:35;;;;;;;4.53;4.13;;;19.20;28.70;;;;;;5146266;27;48305;-19
2022/01/13 12:16:02;;;;;;;4.60;3.92;;;19.20;28.70;;;;;;5146853;27;46955;-18
2022/01/13 12:18:53;;;;;;;4.47;4.07;;;19.20;28.70;;;;;;5146231;27;46788;-19
2022/01/13 12:21:25;;;;;;;5.53;4.38;;;19.30;28.70;;;;;;5146834;27;46968;-19
2022/01/13 12:23:53;;;;;;;4.57;4.18;;;19.30;28.70;;;;;;5146590;27;47538;-19
2022/01/13 12:26:51;;;;;;;5.78;4.53;;;19.30;28.60;;;;;;5145998;27;47033;-19
2022/01/13 12:29:20;;;;;;;5.25;4.13;;;19.40;28.60;;;;;;5126094;27;46736;-19
2022/01/13 12:31:51;;;;;;;5.38;4.57;;;19.50;28.50;;;;;;5124308;27;47305;-19
2022/01/13 12:34:39;;;;;;;5.00;4.13;;;19.50;28.50;;;;;;5124457;27;48967;-19
2022/01/13 12:37:24;;;;;;;4.20;3.80;;;19.60;28.50;;;;;;5119741;27;47200;-19
2022/01/13 12:39:55;;;;;;;4.55;3.97;;;19.60;28.40;;;;;;5144681;27;46884;-19
2022/01/13 12:42:24;;;;;;;4.45;4.05;;;19.60;28.40;;;;;;5144889;27;47170;-18
2022/01/13 12:47:35;;;;;;;5.13;4.63;;;19.60;28.40;;;;;;5131438;27;46988;-18
2022/01/13 12:50:04;;;;;;;4.88;4.07;;;19.60;28.40;;;;;;5125298;27;46888;-19
2022/01/13 12:52:30;;;;;;;4.60;4.13;;;19.60;28.50;;;;;;5123465;27;47290;-19
2022/01/13 12:54:58;;;;;;;4.65;4.25;;;19.50;28.50;;;;;;5128236;27;47948;-19
2022/01/13 12:57:25;;;;;;;6.18;5.00;;;19.40;28.70;;;;;;5137014;27;47384;-19
2022/01/13 12:59:55;;;;;;;4.90;4.50;;;19.30;28.80;;;;;;5170919;27;46982;-18
2022/01/13 13:02:22;;;;;;;4.93;4.43;;;19.10;28.90;;;;;;5171145;27;46906;-18
2022/01/13 13:04:48;;;;;;;5.75;4.97;;;19.00;29.10;;;;;;5171081;27;49061;-18
2022/01/13 13:07:15;;;;;;;6.88;5.00;;;18.90;29.30;;;;;;5170686;27;46824;-20
2022/01/13 13:09:42;;;;;;;5.13;4.63;;;18.80;29.40;;;;;;5170769;27;46830;-18